Time;durP1;ratioP1;P1;durP2;ratioP2;P2;SDS_P1;SDS_P2;PMS_P1;PMS_P2;Temp;Humidity;BMP_temperature;BMP_pressure;BME280_temperature;BME280_humidity;BME280_pressure;Samples;Min_cycle;Max_cycle;Signal;HPM_P1;HPM_P2
2023/08/29 00:02:05;;;;;;;1.90;0.97;;;;;;;;;;5092875;28;20471;-55
2023/08/29 00:04:32;;;;;;;1.70;0.90;;;;;;;;;;5092617;28;20551;-55
2023/08/29 00:06:59;;;;;;;2.40;0.90;;;;;;;;;;5090984;28;20474;-56
2023/08/29 00:09:26;;;;;;;1.60;1.00;;;;;;;;;;5092981;28;20554;-56
2023/08/29 00:11:54;;;;;;;1.70;0.90;;;;;;;;;;5092811;28;20490;-55
2023/08/29 00:14:21;;;;;;;1.77;1.00;;;;;;;;;;5092601;28;20475;-56
2023/08/29 00:16:49;;;;;;;1.70;0.90;;;;;;;;;;5092827;28;20474;-54
2023/08/29 00:19:17;;;;;;;2.17;0.70;;;;;;;;;;5092847;28;20480;-55
2023/08/29 00:21:45;;;;;;;1.50;0.60;;;;;;;;;;5092572;28;20444;-55
2023/08/29 00:24:12;;;;;;;1.60;0.63;;;;;;;;;;5092141;28;20443;-56
2023/08/29 00:26:39;;;;;;;1.60;0.70;;;;;;;;;;5088970;28;20437;-55
2023/08/29 00:29:06;;;;;;;1.77;0.93;;;;;;;;;;5079327;28;20526;-55
2023/08/29 00:31:34;;;;;;;1.40;0.60;;;;;;;;;;5072088;28;20527;-55
2023/08/29 00:34:01;;;;;;;2.23;0.57;;;;;;;;;;5071357;28;20440;-56
2023/08/29 00:36:29;;;;;;;1.50;0.60;;;;;;;;;;5092332;28;20443;-56
2023/08/29 00:38:57;;;;;;;1.50;0.50;;;;;;;;;;5092359;28;20858;-56
2023/08/29 00:41:24;;;;;;;2.33;0.60;;;;;;;;;;5089679;28;20475;-56
2023/08/29 00:43:51;;;;;;;1.93;0.80;;;;;;;;;;5089925;28;20843;-54
2023/08/29 00:46:19;;;;;;;2.03;0.67;;;;;;;;;;5090459;28;20918;-55
2023/08/29 00:48:48;;;;;;;2.13;0.93;;;;;;;;;;5091006;28;20818;-55
2023/08/29 00:51:15;;;;;;;2.73;0.80;;;;;;;;;;5091917;28;20479;-55
2023/08/29 00:53:44;;;;;;;1.80;0.80;;;;;;;;;;5091160;28;20503;-55
2023/08/29 00:56:12;;;;;;;1.50;0.63;;;;;;;;;;5092210;28;20536;-56
2023/08/29 00:58:39;;;;;;;1.80;0.80;;;;;;;;;;5091862;28;20984;-55
2023/08/29 01:01:06;;;;;;;2.67;0.87;;;;;;;;;;5091766;28;20888;-56
2023/08/29 01:03:33;;;;;;;1.53;0.60;;;;;;;;;;5091471;28;20938;-56
2023/08/29 01:06:01;;;;;;;1.50;0.70;;;;;;;;;;5091608;28;20464;-56
2023/08/29 01:08:28;;;;;;;1.50;0.70;;;;;;;;;;5085452;28;20527;-56
2023/08/29 01:11:00;;;;;;;2.90;0.70;;;;;;;;;;5071287;28;20567;-56
2023/08/29 01:13:31;;;;;;;1.50;0.70;;;;;;;;;;5072290;28;20462;-56
2023/08/29 01:16:00;;;;;;;2.37;1.00;;;;;;;;;;5071157;28;20492;-55
2023/08/29 01:18:30;;;;;;;1.60;0.60;;;;;;;;;;5081762;28;20482;-55
2023/08/29 01:21:00;;;;;;;2.23;0.80;;;;;;;;;;5091573;28;20452;-54
2023/08/29 01:23:32;;;;;;;1.80;0.70;;;;;;;;;;5091482;28;20496;-55
2023/08/29 01:26:10;;;;;;;1.70;0.60;;;;;;;;;;5091598;28;20538;-55
2023/08/29 01:28:38;;;;;;;2.23;0.67;;;;;;;;;;5091487;28;20497;-56
2023/08/29 01:31:06;;;;;;;1.40;0.50;;;;;;;;;;5089061;28;20529;-54
2023/08/29 01:33:33;;;;;;;1.43;0.57;;;;;;;;;;5091149;28;20518;-56
2023/08/29 01:36:00;;;;;;;1.50;0.50;;;;;;;;;;5090857;28;20459;-55
2023/08/29 01:38:27;;;;;;;1.40;0.50;;;;;;;;;;5091300;28;20467;-55
2023/08/29 01:40:54;;;;;;;1.70;0.50;;;;;;;;;;5090564;28;20539;-55
2023/08/29 01:43:23;;;;;;;1.40;0.40;;;;;;;;;;5075239;28;20494;-56
2023/08/29 01:45:50;;;;;;;1.40;0.50;;;;;;;;;;5070247;28;20495;-56
2023/08/29 01:48:17;;;;;;;1.90;0.60;;;;;;;;;;5070860;28;20532;-56
2023/08/29 01:50:45;;;;;;;1.60;0.60;;;;;;;;;;5071000;28;20503;-56
2023/08/29 01:53:13;;;;;;;3.50;0.50;;;;;;;;;;5069722;28;20615;-56
2023/08/29 01:55:40;;;;;;;6.50;0.80;;;;;;;;;;5070515;28;20499;-55
2023/08/29 01:58:09;;;;;;;1.83;0.50;;;;;;;;;;5070418;28;20874;-55
2023/08/29 02:00:38;;;;;;;1.40;0.57;;;;;;;;;;5070629;28;20523;-55
2023/08/29 02:03:05;;;;;;;1.40;0.40;;;;;;;;;;5070449;28;20528;-55
2023/08/29 02:05:32;;;;;;;1.70;0.70;;;;;;;;;;5090120;28;20487;-56
2023/08/29 02:07:59;;;;;;;2.27;0.60;;;;;;;;;;5082352;28;20490;-55
2023/08/29 02:10:27;;;;;;;1.90;0.50;;;;;;;;;;5070579;28;20538;-54
2023/08/29 02:12:54;;;;;;;1.50;0.50;;;;;;;;;;5070616;28;20468;-55
2023/08/29 02:15:21;;;;;;;2.17;0.43;;;;;;;;;;5071131;28;20492;-55
2023/08/29 02:17:51;;;;;;;1.40;0.50;;;;;;;;;;5090700;28;20471;-56
2023/08/29 02:20:18;;;;;;;2.33;0.50;;;;;;;;;;5090492;28;20435;-55
2023/08/29 02:22:45;;;;;;;1.83;0.50;;;;;;;;;;5090237;28;20439;-56
2023/08/29 02:25:12;;;;;;;1.40;0.40;;;;;;;;;;5090299;28;20505;-56
2023/08/29 02:27:40;;;;;;;1.80;0.60;;;;;;;;;;5090606;28;20497;-55
2023/08/29 02:30:08;;;;;;;1.40;0.50;;;;;;;;;;5090398;28;20521;-54
2023/08/29 02:32:35;;;;;;;2.00;0.50;;;;;;;;;;5090508;28;20467;-55
2023/08/29 02:35:04;;;;;;;1.80;0.60;;;;;;;;;;5090295;28;20517;-56
2023/08/29 02:37:32;;;;;;;1.50;0.40;;;;;;;;;;5072367;28;20472;-55
2023/08/29 02:40:00;;;;;;;1.30;0.30;;;;;;;;;;5069345;28;20447;-56
2023/08/29 02:42:27;;;;;;;1.37;0.40;;;;;;;;;;5070544;28;20468;-56
2023/08/29 02:44:54;;;;;;;2.33;0.60;;;;;;;;;;5090843;22;20545;-58
2023/08/29 02:47:21;;;;;;;1.63;0.67;;;;;;;;;;5110901;28;20518;-58
2023/08/29 02:49:49;;;;;;;2.23;0.70;;;;;;;;;;5110334;28;20522;-57
2023/08/29 02:52:17;;;;;;;1.70;0.57;;;;;;;;;;5110286;28;20462;-59
2023/08/29 02:54:44;;;;;;;2.47;0.60;;;;;;;;;;5110649;28;20486;-59
2023/08/29 02:57:12;;;;;;;1.60;0.60;;;;;;;;;;5106120;28;20539;-58
2023/08/29 02:59:39;;;;;;;2.07;0.73;;;;;;;;;;5093187;28;20989;-58
2023/08/29 03:02:06;;;;;;;1.73;0.57;;;;;;;;;;5099968;28;20788;-58
2023/08/29 03:04:33;;;;;;;1.70;0.70;;;;;;;;;;5113138;28;20525;-57
2023/08/29 03:07:02;;;;;;;1.60;0.70;;;;;;;;;;5114478;28;20435;-58
2023/08/29 03:09:31;;;;;;;3.60;1.27;;;;;;;;;;5107678;28;20450;-57
2023/08/29 03:11:58;;;;;;;2.73;0.50;;;;;;;;;;5094006;28;20565;-58
2023/08/29 03:14:26;;;;;;;2.23;0.60;;;;;;;;;;5093782;28;20474;-60
2023/08/29 03:16:54;;;;;;;1.70;0.73;;;;;;;;;;5093922;28;20439;-58
2023/08/29 03:19:21;;;;;;;1.97;0.40;;;;;;;;;;5093732;28;20504;-58
2023/08/29 03:21:48;;;;;;;1.67;0.70;;;;;;;;;;5093658;28;20522;-58
2023/08/29 03:24:15;;;;;;;1.40;0.50;;;;;;;;;;5093876;28;20446;-57
2023/08/29 03:26:44;;;;;;;1.70;0.50;;;;;;;;;;5093938;28;20538;-58
2023/08/29 03:29:11;;;;;;;1.70;0.60;;;;;;;;;;5099757;28;20511;-59
2023/08/29 03:31:39;;;;;;;1.43;0.53;;;;;;;;;;5113865;28;20505;-58
2023/08/29 03:34:06;;;;;;;1.70;0.73;;;;;;;;;;5113766;28;20803;-58
2023/08/29 03:36:33;;;;;;;1.40;0.50;;;;;;;;;;5102496;28;20542;-57
2023/08/29 03:39:02;;;;;;;1.50;0.47;;;;;;;;;;5094612;28;21009;-59
2023/08/29 03:41:29;;;;;;;1.90;0.57;;;;;;;;;;5111591;28;20443;-57
2023/08/29 03:43:58;;;;;;;1.77;0.53;;;;;;;;;;5106129;28;20525;-59
2023/08/29 03:46:25;;;;;;;2.37;0.60;;;;;;;;;;5094040;28;20496;-59
2023/08/29 03:48:52;;;;;;;1.83;0.60;;;;;;;;;;5094190;28;20524;-59
2023/08/29 03:51:20;;;;;;;2.20;0.50;;;;;;;;;;5093491;28;20486;-57
2023/08/29 03:53:47;;;;;;;1.60;0.60;;;;;;;;;;5092948;28;20443;-57
2023/08/29 03:56:14;;;;;;;1.97;0.50;;;;;;;;;;5093533;28;20508;-57
2023/08/29 03:58:42;;;;;;;1.60;0.60;;;;;;;;;;5093682;28;20466;-57
2023/08/29 04:01:11;;;;;;;2.20;0.60;;;;;;;;;;5093381;28;20880;-58
2023/08/29 04:03:38;;;;;;;1.70;0.60;;;;;;;;;;5093226;28;20522;-59
2023/08/29 04:06:06;;;;;;;1.40;0.50;;;;;;;;;;5093606;28;20546;-57
2023/08/29 04:08:33;;;;;;;1.60;0.77;;;;;;;;;;5093205;28;20467;-57
2023/08/29 04:11:04;;;;;;;1.70;0.50;;;;;;;;;;5092869;28;20500;-57
2023/08/29 04:13:31;;;;;;;1.77;0.63;;;;;;;;;;5094372;28;20444;-58
2023/08/29 04:16:02;;;;;;;1.50;0.50;;;;;;;;;;5093379;28;20491;-57
2023/08/29 04:18:31;;;;;;;1.50;0.30;;;;;;;;;;5093301;28;20768;-58
2023/08/29 04:20:58;;;;;;;1.70;0.63;;;;;;;;;;5093390;28;20475;-59
2023/08/29 04:23:25;;;;;;;1.90;0.60;;;;;;;;;;5093075;28;20526;-58
2023/08/29 04:25:59;;;;;;;1.40;0.50;;;;;;;;;;5093068;28;20575;-57
2023/08/29 04:28:26;;;;;;;2.10;0.70;;;;;;;;;;5092855;28;21026;-57
2023/08/29 04:30:54;;;;;;;1.60;0.77;;;;;;;;;;5093045;28;20444;-57
2023/08/29 04:33:22;;;;;;;1.40;0.47;;;;;;;;;;5094068;28;20905;-57
2023/08/29 04:35:52;;;;;;;2.47;0.60;;;;;;;;;;5092622;28;20962;-57
2023/08/29 04:38:19;;;;;;;3.40;0.60;;;;;;;;;;5103915;28;20529;-58
2023/08/29 04:40:46;;;;;;;3.83;0.80;;;;;;;;;;5112358;28;20993;-57
2023/08/29 04:43:13;;;;;;;1.40;0.50;;;;;;;;;;5113041;28;20470;-58
2023/08/29 04:45:42;;;;;;;2.13;0.70;;;;;;;;;;5112417;28;20498;-58
2023/08/29 04:48:10;;;;;;;1.40;0.40;;;;;;;;;;5095062;28;20785;-57
2023/08/29 04:50:37;;;;;;;1.93;0.60;;;;;;;;;;5090905;28;20527;-58
2023/08/29 04:53:06;;;;;;;1.97;0.63;;;;;;;;;;5091036;28;20535;-57
2023/08/29 04:55:33;;;;;;;1.80;0.80;;;;;;;;;;5090633;28;20463;-57
2023/08/29 04:58:00;;;;;;;1.47;0.67;;;;;;;;;;5090908;28;20500;-58
2023/08/29 05:00:28;;;;;;;1.60;0.60;;;;;;;;;;5103845;28;21029;-60
2023/08/29 05:02:56;;;;;;;1.60;0.50;;;;;;;;;;5099661;28;20480;-59
2023/08/29 05:05:23;;;;;;;1.60;0.57;;;;;;;;;;5111502;28;20469;-57
2023/08/29 05:07:50;;;;;;;1.80;0.80;;;;;;;;;;5107636;28;20466;-57
2023/08/29 05:10:19;;;;;;;1.73;0.70;;;;;;;;;;5103036;28;20505;-56
2023/08/29 05:12:46;;;;;;;1.40;0.50;;;;;;;;;;5070053;28;20524;-57
2023/08/29 05:15:14;;;;;;;1.60;0.50;;;;;;;;;;5070662;28;20456;-57
2023/08/29 05:17:41;;;;;;;2.47;0.50;;;;;;;;;;5074441;28;20447;-59
2023/08/29 05:20:09;;;;;;;2.30;0.80;;;;;;;;;;5090119;28;20545;-56
2023/08/29 05:22:37;;;;;;;2.43;0.70;;;;;;;;;;5091048;28;20577;-58
2023/08/29 05:25:05;;;;;;;1.57;0.50;;;;;;;;;;5087265;28;20923;-57
2023/08/29 05:27:34;;;;;;;2.13;0.77;;;;;;;;;;5090065;28;20489;-57
2023/08/29 05:30:01;;;;;;;4.43;1.00;;;;;;;;;;5089707;28;20886;-57
2023/08/29 05:32:29;;;;;;;2.00;0.50;;;;;;;;;;5090203;28;20477;-57
2023/08/29 05:34:56;;;;;;;1.50;0.57;;;;;;;;;;5090227;28;20521;-59
2023/08/29 05:37:23;;;;;;;3.00;0.63;;;;;;;;;;5090699;28;20490;-59
2023/08/29 05:39:51;;;;;;;1.87;0.70;;;;;;;;;;5089986;28;20534;-58
2023/08/29 05:42:19;;;;;;;1.90;0.60;;;;;;;;;;5090290;28;20497;-59
2023/08/29 05:44:47;;;;;;;2.10;0.50;;;;;;;;;;5090624;28;20490;-57
2023/08/29 05:47:14;;;;;;;2.70;0.70;;;;;;;;;;5091291;28;20522;-59
2023/08/29 05:49:42;;;;;;;1.60;0.60;;;;;;;;;;5091292;28;20428;-59
2023/08/29 05:52:09;;;;;;;1.50;0.50;;;;;;;;;;5088991;28;20527;-57
2023/08/29 05:54:37;;;;;;;1.60;0.60;;;;;;;;;;5088643;28;20527;-58
2023/08/29 05:57:05;;;;;;;3.40;0.87;;;;;;;;;;5091031;28;20443;-57
2023/08/29 05:59:33;;;;;;;2.80;0.80;;;;;;;;;;5090423;28;20467;-58
2023/08/29 06:02:03;;;;;;;1.70;0.60;;;;;;;;;;5090789;28;20495;-56
2023/08/29 06:04:30;;;;;;;2.00;0.83;;;;;;;;;;5099131;28;20443;-57
2023/08/29 06:06:57;;;;;;;1.70;0.63;;;;;;;;;;5110382;28;20435;-57
2023/08/29 06:09:24;;;;;;;2.10;1.00;;;;;;;;;;5110349;28;21058;-56
2023/08/29 06:11:51;;;;;;;1.70;0.87;;;;;;;;;;5110177;28;20917;-57
2023/08/29 06:14:19;;;;;;;2.17;0.93;;;;;;;;;;5105304;28;20547;-60
2023/08/29 06:16:46;;;;;;;3.10;0.87;;;;;;;;;;5101655;28;20443;-57
2023/08/29 06:19:15;;;;;;;1.50;0.80;;;;;;;;;;5091228;28;20436;-58
2023/08/29 06:21:42;;;;;;;2.73;1.03;;;;;;;;;;5090823;28;20982;-57
2023/08/29 06:24:09;;;;;;;2.20;0.87;;;;;;;;;;5090517;28;20439;-57
2023/08/29 06:26:37;;;;;;;2.63;0.70;;;;;;;;;;5091044;28;20509;-59
2023/08/29 06:29:04;;;;;;;4.23;1.00;;;;;;;;;;5101825;28;20442;-59
2023/08/29 06:31:32;;;;;;;2.30;0.60;;;;;;;;;;5111291;28;20846;-58
2023/08/29 06:34:00;;;;;;;1.47;0.63;;;;;;;;;;5100714;28;20483;-60
2023/08/29 06:36:29;;;;;;;1.80;0.67;;;;;;;;;;5099123;28;20467;-58
2023/08/29 06:38:56;;;;;;;1.90;0.90;;;;;;;;;;5105254;28;20550;-58
2023/08/29 06:41:23;;;;;;;2.57;1.17;;;;;;;;;;5115321;28;20466;-57
2023/08/29 06:43:50;;;;;;;2.53;0.80;;;;;;;;;;5113912;28;20501;-60
2023/08/29 06:46:18;;;;;;;4.43;1.07;;;;;;;;;;5099544;28;20502;-57
2023/08/29 06:48:45;;;;;;;2.10;1.00;;;;;;;;;;5102218;28;20507;-58
2023/08/29 06:51:12;;;;;;;3.73;0.97;;;;;;;;;;5106524;28;20438;-59
2023/08/29 06:53:41;;;;;;;2.10;0.77;;;;;;;;;;5114115;28;20439;-58
2023/08/29 06:56:08;;;;;;;1.50;0.80;;;;;;;;;;5093342;28;20479;-57
2023/08/29 06:58:36;;;;;;;1.87;0.87;;;;;;;;;;5093869;28;20471;-59
2023/08/29 07:01:04;;;;;;;2.20;0.80;;;;;;;;;;5093460;28;20435;-57
2023/08/29 07:03:31;;;;;;;1.90;0.70;;;;;;;;;;5094572;28;20467;-58
2023/08/29 07:05:59;;;;;;;1.57;0.57;;;;;;;;;;5101596;28;20454;-58
2023/08/29 07:08:26;;;;;;;2.27;0.87;;;;;;;;;;5115286;28;20445;-59
2023/08/29 07:10:55;;;;;;;2.37;0.80;;;;;;;;;;5110235;28;20500;-57
2023/08/29 07:13:22;;;;;;;3.20;0.60;;;;;;;;;;5114878;28;20458;-58
2023/08/29 07:15:49;;;;;;;2.83;0.90;;;;;;;;;;5114685;28;20462;-58
2023/08/29 07:18:16;;;;;;;2.60;0.70;;;;;;;;;;5095734;28;20484;-57
2023/08/29 07:20:44;;;;;;;2.37;0.90;;;;;;;;;;5093529;28;20459;-59
2023/08/29 07:23:11;;;;;;;1.90;0.97;;;;;;;;;;5101789;28;20550;-59
2023/08/29 07:25:39;;;;;;;2.30;0.93;;;;;;;;;;5105166;28;20467;-57
2023/08/29 07:28:09;;;;;;;3.30;0.70;;;;;;;;;;5101089;28;20452;-58
2023/08/29 07:30:36;;;;;;;1.60;0.70;;;;;;;;;;5114474;28;20439;-58
2023/08/29 07:33:04;;;;;;;1.60;0.70;;;;;;;;;;5098119;28;20489;-57
2023/08/29 07:35:31;;;;;;;1.70;0.77;;;;;;;;;;5098184;28;20459;-57
2023/08/29 07:37:59;;;;;;;1.60;0.80;;;;;;;;;;5105603;28;20863;-58
2023/08/29 07:40:26;;;;;;;1.80;0.90;;;;;;;;;;5113148;28;20522;-57
2023/08/29 07:42:53;;;;;;;2.23;1.30;;;;;;;;;;5099367;28;20471;-58
2023/08/29 07:45:22;;;;;;;2.67;1.70;;;;;;;;;;5113178;28;20497;-57
2023/08/29 07:47:50;;;;;;;3.43;2.10;;;;;;;;;;5104955;28;20515;-59
2023/08/29 07:50:17;;;;;;;3.07;1.40;;;;;;;;;;5093604;28;20534;-58
2023/08/29 07:52:44;;;;;;;2.17;1.63;;;;;;;;;;5093593;28;20524;-57
2023/08/29 07:55:11;;;;;;;2.27;1.30;;;;;;;;;;5093868;28;21062;-58
2023/08/29 07:57:39;;;;;;;1.90;0.83;;;;;;;;;;5108629;28;20470;-59
2023/08/29 08:00:09;;;;;;;1.60;0.70;;;;;;;;;;5100693;28;20471;-59
2023/08/29 08:02:39;;;;;;;1.90;0.90;;;;;;;;;;5093514;28;20471;-58
2023/08/29 08:05:07;;;;;;;2.30;0.90;;;;;;;;;;5093254;28;20546;-59
2023/08/29 08:07:34;;;;;;;1.97;0.90;;;;;;;;;;5094115;28;20432;-58
2023/08/29 08:10:04;;;;;;;1.63;0.63;;;;;;;;;;5102121;28;20439;-57
2023/08/29 08:12:31;;;;;;;2.73;0.70;;;;;;;;;;5113886;28;20442;-58
2023/08/29 08:14:59;;;;;;;1.63;0.50;;;;;;;;;;5113033;28;20539;-57
2023/08/29 08:17:26;;;;;;;1.90;0.83;;;;;;;;;;5099931;28;20511;-57
2023/08/29 08:19:55;;;;;;;1.40;0.60;;;;;;;;;;5101197;28;20443;-58
2023/08/29 08:22:22;;;;;;;1.70;0.63;;;;;;;;;;5112987;28;20467;-57
2023/08/29 08:24:49;;;;;;;1.90;0.80;;;;;;;;;;5111775;28;20486;-58
2023/08/29 08:27:18;;;;;;;1.40;0.53;;;;;;;;;;5106769;28;20478;-59
2023/08/29 08:29:46;;;;;;;1.40;0.50;;;;;;;;;;5098826;28;20439;-57
2023/08/29 08:32:13;;;;;;;2.37;0.70;;;;;;;;;;5106463;28;20430;-58
2023/08/29 08:34:40;;;;;;;1.73;0.67;;;;;;;;;;5094228;28;20464;-58
2023/08/29 08:37:09;;;;;;;1.30;0.40;;;;;;;;;;5098668;28;20482;-59
2023/08/29 08:39:36;;;;;;;1.40;0.50;;;;;;;;;;5096954;28;20538;-59
2023/08/29 08:42:04;;;;;;;1.50;0.53;;;;;;;;;;5104589;28;20555;-59
2023/08/29 08:46:59;;;;;;;1.60;0.60;;;;;;;;;;5110875;22;20495;-84
2023/08/29 08:49:27;;;;;;;1.87;0.83;;;;;;;;;;5094434;28;20466;-84
2023/08/29 08:51:55;;;;;;;1.70;0.90;;;;;;;;;;5092756;28;20451;-84
2023/08/29 08:54:25;;;;;;;2.60;1.70;;;;;;;;;;5078406;28;20480;-84
2023/08/29 08:56:57;;;;;;;2.47;0.70;;;;;;;;;;5096003;28;20430;-84
2023/08/29 08:59:24;;;;;;;2.13;0.50;;;;;;;;;;5074707;28;20448;-84
2023/08/29 09:01:52;;;;;;;1.50;0.50;;;;;;;;;;5073626;28;20437;-84
2023/08/29 09:04:19;;;;;;;1.43;0.50;;;;;;;;;;5072225;28;20498;-83
2023/08/29 09:06:46;;;;;;;3.13;0.77;;;;;;;;;;5069317;28;20514;-84
2023/08/29 09:09:17;;;;;;;1.87;0.50;;;;;;;;;;5089909;28;20432;-84
2023/08/29 09:11:51;;;;;;;1.53;0.60;;;;;;;;;;5093442;28;20857;-84
2023/08/29 09:14:19;;;;;;;2.67;0.77;;;;;;;;;;5073910;28;21071;-84
2023/08/29 09:16:46;;;;;;;1.47;0.60;;;;;;;;;;5074973;28;20448;-84
2023/08/29 09:19:14;;;;;;;1.50;0.60;;;;;;;;;;5074297;28;20472;-84
2023/08/29 09:21:43;;;;;;;1.53;0.77;;;;;;;;;;5073266;28;20452;-84
2023/08/29 09:24:13;;;;;;;1.53;0.57;;;;;;;;;;5073736;28;20510;-84
2023/08/29 09:26:41;;;;;;;1.60;0.60;;;;;;;;;;5073695;28;20441;-83
2023/08/29 09:29:18;;;;;;;1.70;0.53;;;;;;;;;;5073473;28;20930;-83
2023/08/29 09:31:46;;;;;;;1.80;0.70;;;;;;;;;;5074750;28;20979;-84
2023/08/29 09:34:24;;;;;;;1.67;0.63;;;;;;;;;;5073354;28;20465;-84
2023/08/29 09:36:51;;;;;;;1.50;0.67;;;;;;;;;;5073234;28;20441;-83
2023/08/29 09:39:19;;;;;;;1.70;0.53;;;;;;;;;;5072988;28;20790;-84
2023/08/29 09:41:58;;;;;;;1.70;0.73;;;;;;;;;;5074355;28;20506;-84
2023/08/29 09:44:27;;;;;;;2.10;0.63;;;;;;;;;;5073977;28;20555;-84
2023/08/29 09:46:54;;;;;;;1.53;0.60;;;;;;;;;;5072266;28;20452;-86
2023/08/29 09:49:22;;;;;;;1.60;0.60;;;;;;;;;;5071910;28;20453;-86
2023/08/29 09:51:50;;;;;;;1.50;0.67;;;;;;;;;;5069707;28;20471;-86
2023/08/29 09:54:20;;;;;;;3.20;1.00;;;;;;;;;;5071985;28;20543;-86
2023/08/29 09:56:48;;;;;;;1.50;0.60;;;;;;;;;;5071684;28;20531;-85
2023/08/29 09:59:18;;;;;;;1.67;0.60;;;;;;;;;;5069379;28;20439;-86
2023/08/29 10:01:48;;;;;;;1.57;0.60;;;;;;;;;;5092274;28;20525;-85
2023/08/29 10:04:19;;;;;;;2.33;0.83;;;;;;;;;;5073293;28;21000;-86
2023/08/29 10:06:47;;;;;;;1.70;0.80;;;;;;;;;;5070977;28;20458;-87
2023/08/29 10:09:18;;;;;;;1.60;0.70;;;;;;;;;;5070811;28;20865;-85
2023/08/29 10:11:46;;;;;;;1.60;0.60;;;;;;;;;;5071229;28;20460;-85
2023/08/29 10:14:13;;;;;;;1.70;0.63;;;;;;;;;;5070107;28;20577;-84
2023/08/29 10:16:41;;;;;;;1.90;0.80;;;;;;;;;;5063720;28;20861;-84
2023/08/29 10:19:11;;;;;;;2.70;0.93;;;;;;;;;;5071365;28;20528;-85
2023/08/29 10:21:39;;;;;;;2.40;0.77;;;;;;;;;;5072098;28;20957;-85
2023/08/29 10:24:07;;;;;;;2.67;1.00;;;;;;;;;;5070447;28;20528;-85
2023/08/29 10:26:35;;;;;;;1.93;0.90;;;;;;;;;;5071680;28;20479;-84
2023/08/29 10:29:02;;;;;;;1.50;0.90;;;;;;;;;;5070952;28;20582;-86
2023/08/29 10:31:30;;;;;;;1.80;0.93;;;;;;;;;;5068898;28;20472;-84
2023/08/29 10:33:57;;;;;;;1.83;0.97;;;;;;;;;;5070500;28;20559;-85
2023/08/29 10:36:26;;;;;;;1.70;0.83;;;;;;;;;;5071887;28;20505;-84
2023/08/29 10:38:54;;;;;;;1.70;1.00;;;;;;;;;;5075664;28;20468;-84
2023/08/29 10:41:21;;;;;;;2.20;0.80;;;;;;;;;;5072006;28;20960;-85
2023/08/29 10:43:53;;;;;;;2.40;1.10;;;;;;;;;;5071751;28;20507;-85
2023/08/29 10:46:21;;;;;;;1.70;0.73;;;;;;;;;;5069888;28;20456;-84
2023/08/29 10:48:55;;;;;;;1.80;1.10;;;;;;;;;;5070921;28;20868;-84
2023/08/29 10:51:24;;;;;;;2.13;0.90;;;;;;;;;;5072370;28;20504;-85
2023/08/29 10:53:56;;;;;;;2.53;1.20;;;;;;;;;;5071363;28;21337;-86
2023/08/29 10:56:26;;;;;;;2.43;1.63;;;;;;;;;;5071934;28;21019;-85
2023/08/29 10:58:53;;;;;;;1.90;1.30;;;;;;;;;;5072752;28;21033;-86
2023/08/29 11:01:31;;;;;;;2.37;1.30;;;;;;;;;;5073202;28;20883;-86
2023/08/29 11:03:59;;;;;;;2.30;1.23;;;;;;;;;;5070528;28;20898;-85
2023/08/29 11:06:27;;;;;;;1.80;0.83;;;;;;;;;;5070653;28;20949;-86
2023/08/29 11:09:16;;;;;;;4.57;1.30;;;;;;;;;;5070709;28;20511;-85
2023/08/29 11:11:44;;;;;;;2.03;1.33;;;;;;;;;;5070614;28;21231;-85
2023/08/29 11:14:11;;;;;;;1.70;1.10;;;;;;;;;;5069326;28;20484;-85
2023/08/29 11:16:59;;;;;;;1.87;1.00;;;;;;;;;;5064332;28;20464;-85
2023/08/29 11:19:26;;;;;;;1.93;1.13;;;;;;;;;;5070437;28;20432;-86
2023/08/29 11:21:54;;;;;;;1.50;0.90;;;;;;;;;;5071445;28;20498;-86
2023/08/29 11:24:23;;;;;;;1.90;1.30;;;;;;;;;;5072803;28;20484;-85
2023/08/29 11:26:51;;;;;;;2.47;1.10;;;;;;;;;;5069838;28;20452;-86
2023/08/29 11:29:18;;;;;;;1.83;1.00;;;;;;;;;;5070888;28;20569;-85
2023/08/29 11:31:47;;;;;;;1.83;1.10;;;;;;;;;;5073532;28;20440;-86
2023/08/29 11:34:15;;;;;;;2.47;0.97;;;;;;;;;;5070503;28;20496;-86
2023/08/29 11:36:44;;;;;;;2.03;1.10;;;;;;;;;;5066737;28;20475;-86
2023/08/29 11:39:12;;;;;;;2.27;1.30;;;;;;;;;;5072456;28;20455;-84
2023/08/29 11:41:43;;;;;;;2.00;1.00;;;;;;;;;;5074514;28;20546;-84
2023/08/29 11:44:10;;;;;;;3.90;1.40;;;;;;;;;;5076504;28;20484;-83
2023/08/29 11:46:37;;;;;;;1.67;1.13;;;;;;;;;;5074274;28;20444;-83
2023/08/29 11:49:12;;;;;;;4.80;1.10;;;;;;;;;;5073342;28;20472;-83
2023/08/29 11:51:40;;;;;;;2.27;1.30;;;;;;;;;;5073981;28;20444;-84
2023/08/29 11:54:07;;;;;;;1.70;0.93;;;;;;;;;;5074319;28;20456;-83
2023/08/29 11:56:34;;;;;;;2.50;1.30;;;;;;;;;;5074703;28;20480;-84
2023/08/29 11:59:03;;;;;;;1.87;0.97;;;;;;;;;;5074867;28;20479;-84
2023/08/29 12:01:37;;;;;;;1.70;0.83;;;;;;;;;;5074551;28;20861;-84
2023/08/29 12:04:07;;;;;;;2.03;0.87;;;;;;;;;;5073865;28;21028;-83
2023/08/29 12:06:34;;;;;;;2.00;0.80;;;;;;;;;;5074594;28;20872;-84
2023/08/29 12:09:03;;;;;;;1.80;0.67;;;;;;;;;;5074303;28;20941;-84
2023/08/29 12:11:42;;;;;;;1.60;0.80;;;;;;;;;;5074786;28;20449;-84
2023/08/29 12:14:10;;;;;;;1.50;0.80;;;;;;;;;;5074727;28;20460;-84
2023/08/29 12:16:38;;;;;;;1.50;0.60;;;;;;;;;;5074999;28;20987;-84
2023/08/29 12:19:06;;;;;;;3.90;1.07;;;;;;;;;;5074692;28;20429;-84
2023/08/29 12:21:33;;;;;;;1.60;0.80;;;;;;;;;;5074581;28;20521;-83
2023/08/29 12:24:10;;;;;;;1.77;0.83;;;;;;;;;;5073972;28;20473;-83
2023/08/29 12:26:37;;;;;;;1.87;1.10;;;;;;;;;;5074988;28;20519;-83
2023/08/29 12:29:05;;;;;;;2.17;0.83;;;;;;;;;;5074406;28;20433;-84
2023/08/29 12:31:33;;;;;;;2.47;0.90;;;;;;;;;;5073877;28;20432;-84
2023/08/29 12:34:01;;;;;;;1.70;0.80;;;;;;;;;;5073958;28;20987;-83
2023/08/29 12:36:28;;;;;;;2.00;0.90;;;;;;;;;;5073888;28;20913;-83
2023/08/29 12:38:56;;;;;;;1.90;1.00;;;;;;;;;;5073893;28;20448;-84
2023/08/29 12:41:24;;;;;;;3.40;1.03;;;;;;;;;;5073411;28;20547;-83
2023/08/29 12:43:51;;;;;;;2.13;1.00;;;;;;;;;;5073553;28;20503;-84
2023/08/29 12:46:18;;;;;;;1.60;0.73;;;;;;;;;;5073542;28;20456;-83
2023/08/29 12:48:47;;;;;;;2.13;0.97;;;;;;;;;;5074431;28;20479;-84
2023/08/29 12:51:14;;;;;;;2.37;0.90;;;;;;;;;;5074320;28;20577;-84
2023/08/29 12:53:43;;;;;;;1.60;0.80;;;;;;;;;;5073284;28;21055;-84
2023/08/29 12:56:11;;;;;;;2.20;1.00;;;;;;;;;;5074162;28;20806;-83
2023/08/29 12:58:38;;;;;;;3.60;0.77;;;;;;;;;;5074078;28;20494;-84
2023/08/29 13:01:06;;;;;;;2.03;0.70;;;;;;;;;;5073833;28;20440;-83
2023/08/29 13:03:33;;;;;;;3.90;1.10;;;;;;;;;;5073709;28;20547;-84
2023/08/29 13:06:02;;;;;;;1.90;0.83;;;;;;;;;;5074270;28;20493;-84
2023/08/29 13:08:29;;;;;;;1.67;0.63;;;;;;;;;;5073925;28;20467;-83
2023/08/29 13:10:56;;;;;;;1.63;0.70;;;;;;;;;;5073878;28;20483;-83
2023/08/29 13:13:23;;;;;;;1.90;0.77;;;;;;;;;;5073620;28;20468;-82
2023/08/29 13:15:51;;;;;;;2.00;0.87;;;;;;;;;;5075162;28;20453;-83
2023/08/29 13:18:18;;;;;;;2.40;0.80;;;;;;;;;;5076616;28;20482;-82
2023/08/29 13:20:45;;;;;;;2.00;0.80;;;;;;;;;;5072583;28;20498;-84
2023/08/29 13:23:14;;;;;;;1.70;0.70;;;;;;;;;;5072294;28;20491;-83
2023/08/29 13:25:41;;;;;;;3.40;0.60;;;;;;;;;;5072419;28;20448;-83
2023/08/29 13:28:08;;;;;;;2.53;0.67;;;;;;;;;;5072259;28;20463;-84
2023/08/29 13:30:36;;;;;;;1.90;0.70;;;;;;;;;;5072812;28;20476;-83
2023/08/29 13:33:03;;;;;;;3.10;0.80;;;;;;;;;;5071955;28;20433;-83
2023/08/29 13:35:31;;;;;;;2.23;0.77;;;;;;;;;;5072672;28;20698;-83
2023/08/29 13:37:58;;;;;;;2.10;0.83;;;;;;;;;;5072859;28;20468;-83
2023/08/29 13:40:26;;;;;;;1.87;0.90;;;;;;;;;;5072699;28;20483;-83
2023/08/29 13:42:54;;;;;;;1.60;0.70;;;;;;;;;;5072349;28;20468;-83
2023/08/29 13:45:21;;;;;;;2.53;0.80;;;;;;;;;;5072382;28;20487;-83
2023/08/29 13:47:48;;;;;;;1.50;0.67;;;;;;;;;;5073095;28;20440;-83
2023/08/29 13:50:17;;;;;;;1.70;0.80;;;;;;;;;;5073135;28;20471;-83
2023/08/29 13:52:44;;;;;;;1.60;0.60;;;;;;;;;;5071642;28;20984;-84
2023/08/29 13:55:11;;;;;;;1.40;0.50;;;;;;;;;;5073242;28;20850;-84
2023/08/29 13:57:40;;;;;;;1.80;0.70;;;;;;;;;;5073745;28;20472;-83
2023/08/29 14:00:08;;;;;;;1.40;0.50;;;;;;;;;;5073543;28;20928;-84
2023/08/29 14:02:39;;;;;;;2.27;0.80;;;;;;;;;;5073075;28;20999;-83
2023/08/29 14:05:06;;;;;;;1.60;0.57;;;;;;;;;;5072721;28;20472;-84
2023/08/29 14:07:34;;;;;;;1.57;0.63;;;;;;;;;;5073003;28;20883;-83
2023/08/29 14:10:01;;;;;;;1.93;0.77;;;;;;;;;;5072686;28;21010;-84
2023/08/29 14:12:28;;;;;;;1.90;0.77;;;;;;;;;;5073167;28;20448;-83
2023/08/29 14:14:57;;;;;;;1.73;0.63;;;;;;;;;;5072792;28;21011;-84
2023/08/29 14:17:24;;;;;;;1.80;0.90;;;;;;;;;;5073343;28;20472;-84
2023/08/29 14:19:51;;;;;;;1.63;0.70;;;;;;;;;;5072999;28;20468;-84
2023/08/29 14:22:18;;;;;;;1.73;0.67;;;;;;;;;;5072632;28;20471;-84
2023/08/29 14:24:46;;;;;;;1.97;1.00;;;;;;;;;;5074140;28;20504;-84
2023/08/29 14:27:14;;;;;;;1.40;0.60;;;;;;;;;;5073293;28;20495;-84
2023/08/29 14:29:41;;;;;;;2.17;0.97;;;;;;;;;;5073157;28;20482;-83
2023/08/29 14:32:10;;;;;;;1.70;0.70;;;;;;;;;;5072928;28;20432;-84
2023/08/29 14:34:37;;;;;;;2.10;0.70;;;;;;;;;;5072436;28;20484;-84
2023/08/29 14:37:05;;;;;;;2.43;1.17;;;;;;;;;;5072781;28;20472;-84
2023/08/29 14:39:33;;;;;;;2.17;0.70;;;;;;;;;;5072821;28;20976;-83
2023/08/29 14:42:00;;;;;;;1.70;0.70;;;;;;;;;;5072364;28;20533;-84
2023/08/29 14:44:27;;;;;;;2.53;0.90;;;;;;;;;;5072628;28;20519;-84
2023/08/29 14:46:54;;;;;;;5.40;1.23;;;;;;;;;;5072463;28;20483;-83
2023/08/29 14:49:23;;;;;;;2.50;1.03;;;;;;;;;;5073833;28;20467;-84
2023/08/29 14:51:50;;;;;;;1.57;0.70;;;;;;;;;;5069199;28;20480;-83